sensor_id;sensor_type;location;lat;lon;timestamp;temperature;humidity
57552;DHT22;43379;48.160;14.036;2023-02-26T00:01:11;4.20;99.90
57552;DHT22;43379;48.160;14.036;2023-02-26T00:03:36;4.20;99.90
57552;DHT22;43379;48.160;14.036;2023-02-26T00:06:02;4.20;99.90
57552;DHT22;43379;48.160;14.036;2023-02-26T00:08:28;4.10;99.90
57552;DHT22;43379;48.160;14.036;2023-02-26T00:10:56;4.10;99.90
57552;DHT22;43379;48.160;14.036;2023-02-26T00:13:22;4.20;99.90
57552;DHT22;43379;48.160;14.036;2023-02-26T00:15:49;4.00;99.90
57552;DHT22;43379;48.160;14.036;2023-02-26T00:18:16;4.00;99.90
57552;DHT22;43379;48.160;14.036;2023-02-26T00:20:42;4.00;99.90
57552;DHT22;43379;48.160;14.036;2023-02-26T00:23:12;4.00;99.90
57552;DHT22;43379;48.160;14.036;2023-02-26T00:25:41;3.90;99.90
57552;DHT22;43379;48.160;14.036;2023-02-26T00:28:08;3.90;99.90
57552;DHT22;43379;48.160;14.036;2023-02-26T00:30:34;3.90;99.90
57552;DHT22;43379;48.160;14.036;2023-02-26T00:33:00;4.00;99.90
57552;DHT22;43379;48.160;14.036;2023-02-26T00:35:27;4.00;99.90
57552;DHT22;43379;48.160;14.036;2023-02-26T00:38:05;4.00;99.90
57552;DHT22;43379;48.160;14.036;2023-02-26T00:40:47;4.00;99.90
57552;DHT22;43379;48.160;14.036;2023-02-26T00:43:22;3.90;99.90
57552;DHT22;43379;48.160;14.036;2023-02-26T00:51:51;3.90;99.90
57552;DHT22;43379;48.160;14.036;2023-02-26T00:54:28;3.80;99.90
57552;DHT22;43379;48.160;14.036;2023-02-26T00:56:55;3.80;99.90
57552;DHT22;43379;48.160;14.036;2023-02-26T00:59:22;3.80;99.90
57552;DHT22;43379;48.160;14.036;2023-02-26T01:01:49;3.90;99.90
57552;DHT22;43379;48.160;14.036;2023-02-26T01:04:18;3.90;99.90
57552;DHT22;43379;48.160;14.036;2023-02-26T01:06:46;3.80;99.90
57552;DHT22;43379;48.160;14.036;2023-02-26T01:09:30;3.80;99.90
57552;DHT22;43379;48.160;14.036;2023-02-26T01:12:00;3.70;99.90
57552;DHT22;43379;48.160;14.036;2023-02-26T01:14:27;3.70;99.90
57552;DHT22;43379;48.160;14.036;2023-02-26T01:17:16;3.70;99.90
57552;DHT22;43379;48.160;14.036;2023-02-26T01:19:56;3.70;99.90
57552;DHT22;43379;48.160;14.036;2023-02-26T01:22:26;3.70;99.90
57552;DHT22;43379;48.160;14.036;2023-02-26T01:25:01;3.70;99.90
57552;DHT22;43379;48.160;14.036;2023-02-26T01:27:27;3.70;99.90
57552;DHT22;43379;48.160;14.036;2023-02-26T01:29:53;3.70;99.90
57552;DHT22;43379;48.160;14.036;2023-02-26T01:35:12;3.70;99.90
57552;DHT22;43379;48.160;14.036;2023-02-26T01:37:52;3.70;99.90
57552;DHT22;43379;48.160;14.036;2023-02-26T01:40:28;3.70;99.90
57552;DHT22;43379;48.160;14.036;2023-02-26T01:43:06;3.70;99.90
57552;DHT22;43379;48.160;14.036;2023-02-26T01:45:47;3.70;99.90
57552;DHT22;43379;48.160;14.036;2023-02-26T01:48:42;3.70;99.90
57552;DHT22;43379;48.160;14.036;2023-02-26T01:51:08;3.70;99.90
57552;DHT22;43379;48.160;14.036;2023-02-26T01:53:34;3.60;99.90
57552;DHT22;43379;48.160;14.036;2023-02-26T01:56:03;3.60;99.90
57552;DHT22;43379;48.160;14.036;2023-02-26T01:58:33;3.60;99.90
57552;DHT22;43379;48.160;14.036;2023-02-26T02:01:00;3.60;99.90
57552;DHT22;43379;48.160;14.036;2023-02-26T02:03:27;3.70;99.90
57552;DHT22;43379;48.160;14.036;2023-02-26T02:05:57;3.60;99.90
57552;DHT22;43379;48.160;14.036;2023-02-26T02:08:24;3.60;99.90
57552;DHT22;43379;48.160;14.036;2023-02-26T02:10:50;3.50;99.90
57552;DHT22;43379;48.160;14.036;2023-02-26T02:16:42;3.40;99.90
57552;DHT22;43379;48.160;14.036;2023-02-26T02:19:34;3.30;99.90
57552;DHT22;43379;48.160;14.036;2023-02-26T02:25:03;3.30;99.90
57552;DHT22;43379;48.160;14.036;2023-02-26T02:32:56;3.20;99.90
57552;DHT22;43379;48.160;14.036;2023-02-26T02:35:24;3.10;99.90
57552;DHT22;43379;48.160;14.036;2023-02-26T02:38:27;3.10;99.90
57552;DHT22;43379;48.160;14.036;2023-02-26T02:41:14;3.10;99.90
57552;DHT22;43379;48.160;14.036;2023-02-26T02:43:42;3.10;99.90
57552;DHT22;43379;48.160;14.036;2023-02-26T02:46:14;3.10;99.90
57552;DHT22;43379;48.160;14.036;2023-02-26T02:49:12;3.10;99.90
57552;DHT22;43379;48.160;14.036;2023-02-26T02:51:59;3.10;99.90
57552;DHT22;43379;48.160;14.036;2023-02-26T02:54:41;3.20;99.90
57552;DHT22;43379;48.160;14.036;2023-02-26T02:57:14;3.10;99.90
57552;DHT22;43379;48.160;14.036;2023-02-26T02:59:50;3.20;99.90
57552;DHT22;43379;48.160;14.036;2023-02-26T03:04:56;3.20;99.90
57552;DHT22;43379;48.160;14.036;2023-02-26T03:07:22;3.10;99.90
57552;DHT22;43379;48.160;14.036;2023-02-26T03:09:48;3.10;99.90
57552;DHT22;43379;48.160;14.036;2023-02-26T03:12:14;3.10;99.90
57552;DHT22;43379;48.160;14.036;2023-02-26T03:14:40;3.10;99.90
57552;DHT22;43379;48.160;14.036;2023-02-26T03:19:59;3.20;99.90
57552;DHT22;43379;48.160;14.036;2023-02-26T03:25:23;3.30;99.90
57552;DHT22;43379;48.160;14.036;2023-02-26T03:36:23;3.20;99.90
57552;DHT22;43379;48.160;14.036;2023-02-26T03:38:57;3.10;99.90
57552;DHT22;43379;48.160;14.036;2023-02-26T03:41:36;3.10;99.90
57552;DHT22;43379;48.160;14.036;2023-02-26T03:44:26;3.10;99.90
57552;DHT22;43379;48.160;14.036;2023-02-26T03:47:04;3.10;99.90
57552;DHT22;43379;48.160;14.036;2023-02-26T03:49:37;3.10;99.90
57552;DHT22;43379;48.160;14.036;2023-02-26T03:52:04;3.00;99.90
57552;DHT22;43379;48.160;14.036;2023-02-26T03:54:34;3.00;99.90
57552;DHT22;43379;48.160;14.036;2023-02-26T03:57:01;3.00;99.90
57552;DHT22;43379;48.160;14.036;2023-02-26T03:59:27;3.00;99.90
57552;DHT22;43379;48.160;14.036;2023-02-26T04:02:12;3.00;99.90
57552;DHT22;43379;48.160;14.036;2023-02-26T04:04:50;3.10;99.90
57552;DHT22;43379;48.160;14.036;2023-02-26T04:07:18;3.10;99.90
57552;DHT22;43379;48.160;14.036;2023-02-26T04:09:47;3.10;99.90
57552;DHT22;43379;48.160;14.036;2023-02-26T04:12:13;3.10;99.90
57552;DHT22;43379;48.160;14.036;2023-02-26T04:14:39;3.00;99.90
57552;DHT22;43379;48.160;14.036;2023-02-26T04:17:05;3.00;99.90
57552;DHT22;43379;48.160;14.036;2023-02-26T04:19:31;3.00;99.90
57552;DHT22;43379;48.160;14.036;2023-02-26T04:21:57;3.00;99.90
57552;DHT22;43379;48.160;14.036;2023-02-26T04:24:22;3.00;99.90
57552;DHT22;43379;48.160;14.036;2023-02-26T04:26:48;3.00;99.90
57552;DHT22;43379;48.160;14.036;2023-02-26T04:29:14;3.00;99.90
57552;DHT22;43379;48.160;14.036;2023-02-26T04:31:40;2.90;99.90
57552;DHT22;43379;48.160;14.036;2023-02-26T04:34:05;2.90;99.90
57552;DHT22;43379;48.160;14.036;2023-02-26T04:36:31;2.90;99.90
57552;DHT22;43379;48.160;14.036;2023-02-26T04:38:57;2.80;99.90
57552;DHT22;43379;48.160;14.036;2023-02-26T04:41:23;2.80;99.90
57552;DHT22;43379;48.160;14.036;2023-02-26T04:43:48;2.70;99.90
57552;DHT22;43379;48.160;14.036;2023-02-26T04:46:14;2.80;99.90
57552;DHT22;43379;48.160;14.036;2023-02-26T04:48:40;2.70;99.90
57552;DHT22;43379;48.160;14.036;2023-02-26T04:51:05;2.70;99.90
57552;DHT22;43379;48.160;14.036;2023-02-26T04:53:31;2.70;99.90
57552;DHT22;43379;48.160;14.036;2023-02-26T04:55:57;2.80;99.90
57552;DHT22;43379;48.160;14.036;2023-02-26T04:58:22;2.80;99.90
57552;DHT22;43379;48.160;14.036;2023-02-26T05:00:50;2.70;99.90
57552;DHT22;43379;48.160;14.036;2023-02-26T05:03:16;2.70;99.90
57552;DHT22;43379;48.160;14.036;2023-02-26T05:05:42;2.80;99.90
57552;DHT22;43379;48.160;14.036;2023-02-26T05:08:09;2.80;99.90
57552;DHT22;43379;48.160;14.036;2023-02-26T05:10:36;2.80;99.90
57552;DHT22;43379;48.160;14.036;2023-02-26T05:13:06;2.80;99.90
57552;DHT22;43379;48.160;14.036;2023-02-26T05:15:32;2.80;99.90
57552;DHT22;43379;48.160;14.036;2023-02-26T05:17:58;2.80;99.90
57552;DHT22;43379;48.160;14.036;2023-02-26T05:20:23;2.80;99.90
57552;DHT22;43379;48.160;14.036;2023-02-26T05:22:49;2.80;99.90
57552;DHT22;43379;48.160;14.036;2023-02-26T05:25:15;2.80;99.90
57552;DHT22;43379;48.160;14.036;2023-02-26T05:27:42;2.70;99.90
57552;DHT22;43379;48.160;14.036;2023-02-26T05:30:09;2.90;99.90
57552;DHT22;43379;48.160;14.036;2023-02-26T05:32:36;2.90;99.90
57552;DHT22;43379;48.160;14.036;2023-02-26T05:35:02;3.00;99.90
57552;DHT22;43379;48.160;14.036;2023-02-26T05:37:28;2.90;99.90
57552;DHT22;43379;48.160;14.036;2023-02-26T05:39:54;3.00;99.90
57552;DHT22;43379;48.160;14.036;2023-02-26T05:42:20;3.00;99.90
57552;DHT22;43379;48.160;14.036;2023-02-26T05:44:45;2.90;99.90
57552;DHT22;43379;48.160;14.036;2023-02-26T05:47:11;3.00;99.90
57552;DHT22;43379;48.160;14.036;2023-02-26T05:49:37;3.00;99.90
57552;DHT22;43379;48.160;14.036;2023-02-26T05:52:03;3.00;99.90
57552;DHT22;43379;48.160;14.036;2023-02-26T05:54:28;2.90;99.90
57552;DHT22;43379;48.160;14.036;2023-02-26T05:56:54;2.90;99.90
57552;DHT22;43379;48.160;14.036;2023-02-26T05:59:20;2.90;99.90
57552;DHT22;43379;48.160;14.036;2023-02-26T06:01:46;2.90;99.90
57552;DHT22;43379;48.160;14.036;2023-02-26T06:04:12;2.90;99.90
57552;DHT22;43379;48.160;14.036;2023-02-26T06:06:37;3.00;99.90
57552;DHT22;43379;48.160;14.036;2023-02-26T06:09:03;3.00;99.90
57552;DHT22;43379;48.160;14.036;2023-02-26T06:11:30;3.00;99.90
57552;DHT22;43379;48.160;14.036;2023-02-26T06:13:55;3.00;99.90
57552;DHT22;43379;48.160;14.036;2023-02-26T06:16:22;3.10;99.90
57552;DHT22;43379;48.160;14.036;2023-02-26T06:18:48;3.10;99.90
57552;DHT22;43379;48.160;14.036;2023-02-26T06:21:15;3.00;99.90
57552;DHT22;43379;48.160;14.036;2023-02-26T06:23:40;3.00;99.90
57552;DHT22;43379;48.160;14.036;2023-02-26T06:26:06;3.00;99.90
57552;DHT22;43379;48.160;14.036;2023-02-26T06:28:32;3.00;99.90
57552;DHT22;43379;48.160;14.036;2023-02-26T06:30:57;3.00;99.90
57552;DHT22;43379;48.160;14.036;2023-02-26T06:33:23;3.10;99.90
57552;DHT22;43379;48.160;14.036;2023-02-26T06:35:49;3.10;99.90
57552;DHT22;43379;48.160;14.036;2023-02-26T06:38:16;3.10;99.90
57552;DHT22;43379;48.160;14.036;2023-02-26T06:40:42;3.00;99.90
57552;DHT22;43379;48.160;14.036;2023-02-26T06:43:07;3.00;99.90
57552;DHT22;43379;48.160;14.036;2023-02-26T06:45:33;3.00;99.90
57552;DHT22;43379;48.160;14.036;2023-02-26T06:47:59;3.00;99.90
57552;DHT22;43379;48.160;14.036;2023-02-26T06:50:25;3.00;99.90
57552;DHT22;43379;48.160;14.036;2023-02-26T06:52:50;3.00;99.90
57552;DHT22;43379;48.160;14.036;2023-02-26T06:55:16;2.90;99.90
57552;DHT22;43379;48.160;14.036;2023-02-26T06:57:42;2.90;99.90
57552;DHT22;43379;48.160;14.036;2023-02-26T07:00:08;3.00;99.90
57552;DHT22;43379;48.160;14.036;2023-02-26T07:02:35;3.00;99.90
57552;DHT22;43379;48.160;14.036;2023-02-26T07:05:00;2.90;99.90
57552;DHT22;43379;48.160;14.036;2023-02-26T07:07:26;3.00;99.90
57552;DHT22;43379;48.160;14.036;2023-02-26T07:09:52;3.00;99.90
57552;DHT22;43379;48.160;14.036;2023-02-26T07:12:18;3.10;99.90
57552;DHT22;43379;48.160;14.036;2023-02-26T07:14:44;3.10;99.90
57552;DHT22;43379;48.160;14.036;2023-02-26T07:17:11;3.10;99.90
57552;DHT22;43379;48.160;14.036;2023-02-26T07:19:46;3.10;99.90
57552;DHT22;43379;48.160;14.036;2023-02-26T07:22:12;3.10;99.90
57552;DHT22;43379;48.160;14.036;2023-02-26T07:24:38;3.10;99.90
57552;DHT22;43379;48.160;14.036;2023-02-26T07:27:04;3.20;99.90
57552;DHT22;43379;48.160;14.036;2023-02-26T07:29:29;3.30;99.90
57552;DHT22;43379;48.160;14.036;2023-02-26T07:31:55;3.20;99.90
57552;DHT22;43379;48.160;14.036;2023-02-26T07:34:20;3.30;99.90
57552;DHT22;43379;48.160;14.036;2023-02-26T07:36:46;3.40;99.90
57552;DHT22;43379;48.160;14.036;2023-02-26T07:39:12;3.40;99.90
57552;DHT22;43379;48.160;14.036;2023-02-26T07:41:37;3.40;99.90
57552;DHT22;43379;48.160;14.036;2023-02-26T07:44:03;3.50;99.90
57552;DHT22;43379;48.160;14.036;2023-02-26T07:46:29;3.60;99.90
57552;DHT22;43379;48.160;14.036;2023-02-26T07:48:54;3.60;99.90
57552;DHT22;43379;48.160;14.036;2023-02-26T07:51:20;3.80;99.90
57552;DHT22;43379;48.160;14.036;2023-02-26T07:53:46;4.00;99.90
57552;DHT22;43379;48.160;14.036;2023-02-26T07:56:11;4.10;99.90
57552;DHT22;43379;48.160;14.036;2023-02-26T07:58:37;4.20;99.90
57552;DHT22;43379;48.160;14.036;2023-02-26T08:01:03;4.20;99.90
57552;DHT22;43379;48.160;14.036;2023-02-26T08:03:29;4.20;99.90
57552;DHT22;43379;48.160;14.036;2023-02-26T08:05:56;4.20;99.90
57552;DHT22;43379;48.160;14.036;2023-02-26T08:08:25;4.10;99.90
57552;DHT22;43379;48.160;14.036;2023-02-26T08:10:52;4.10;99.90
57552;DHT22;43379;48.160;14.036;2023-02-26T08:13:17;4.10;99.90
57552;DHT22;43379;48.160;14.036;2023-02-26T08:15:43;4.00;99.90
57552;DHT22;43379;48.160;14.036;2023-02-26T08:18:10;4.00;99.90
57552;DHT22;43379;48.160;14.036;2023-02-26T08:20:35;4.00;99.90
57552;DHT22;43379;48.160;14.036;2023-02-26T08:23:01;3.80;99.90
57552;DHT22;43379;48.160;14.036;2023-02-26T08:25:27;3.80;99.90
57552;DHT22;43379;48.160;14.036;2023-02-26T08:27:52;3.80;99.90
57552;DHT22;43379;48.160;14.036;2023-02-26T08:30:18;3.90;99.90
57552;DHT22;43379;48.160;14.036;2023-02-26T08:32:44;3.90;99.90
57552;DHT22;43379;48.160;14.036;2023-02-26T08:35:10;4.00;99.90
57552;DHT22;43379;48.160;14.036;2023-02-26T08:37:37;3.90;99.90
57552;DHT22;43379;48.160;14.036;2023-02-26T08:40:04;4.00;99.90
57552;DHT22;43379;48.160;14.036;2023-02-26T08:42:30;3.90;99.90
57552;DHT22;43379;48.160;14.036;2023-02-26T08:44:56;3.80;99.90
57552;DHT22;43379;48.160;14.036;2023-02-26T08:47:22;3.70;99.90
57552;DHT22;43379;48.160;14.036;2023-02-26T08:49:47;3.70;99.90
57552;DHT22;43379;48.160;14.036;2023-02-26T08:52:13;3.50;99.90
57552;DHT22;43379;48.160;14.036;2023-02-26T08:54:39;3.50;99.90
57552;DHT22;43379;48.160;14.036;2023-02-26T08:57:05;3.30;99.90
57552;DHT22;43379;48.160;14.036;2023-02-26T08:59:31;3.30;99.90
57552;DHT22;43379;48.160;14.036;2023-02-26T09:01:56;3.40;99.90
57552;DHT22;43379;48.160;14.036;2023-02-26T09:04:22;3.40;99.90
57552;DHT22;43379;48.160;14.036;2023-02-26T09:06:48;3.40;99.90
57552;DHT22;43379;48.160;14.036;2023-02-26T09:09:13;3.50;99.90
57552;DHT22;43379;48.160;14.036;2023-02-26T09:11:39;3.50;99.90
57552;DHT22;43379;48.160;14.036;2023-02-26T09:14:05;3.60;99.90
57552;DHT22;43379;48.160;14.036;2023-02-26T09:16:31;3.70;99.90
57552;DHT22;43379;48.160;14.036;2023-02-26T09:19:00;3.80;99.90
57552;DHT22;43379;48.160;14.036;2023-02-26T09:21:25;3.80;99.90
57552;DHT22;43379;48.160;14.036;2023-02-26T09:23:51;4.00;99.90
57552;DHT22;43379;48.160;14.036;2023-02-26T09:26:16;4.10;99.90
57552;DHT22;43379;48.160;14.036;2023-02-26T09:28:42;4.00;99.90
57552;DHT22;43379;48.160;14.036;2023-02-26T09:31:08;4.10;99.90
57552;DHT22;43379;48.160;14.036;2023-02-26T09:33:34;4.30;99.90
57552;DHT22;43379;48.160;14.036;2023-02-26T09:36:01;4.50;99.90
57552;DHT22;43379;48.160;14.036;2023-02-26T09:38:27;4.70;99.90
57552;DHT22;43379;48.160;14.036;2023-02-26T09:41:04;4.90;99.90
57552;DHT22;43379;48.160;14.036;2023-02-26T09:52:22;5.10;99.90
57552;DHT22;43379;48.160;14.036;2023-02-26T09:57:44;5.30;99.90
57552;DHT22;43379;48.160;14.036;2023-02-26T10:00:22;5.40;99.90
57552;DHT22;43379;48.160;14.036;2023-02-26T10:02:52;5.70;99.90
57552;DHT22;43379;48.160;14.036;2023-02-26T10:08:30;6.40;99.90
57552;DHT22;43379;48.160;14.036;2023-02-26T10:11:04;6.40;99.90
57552;DHT22;43379;48.160;14.036;2023-02-26T10:16:06;7.00;99.90
57552;DHT22;43379;48.160;14.036;2023-02-26T10:18:35;7.40;99.90
57552;DHT22;43379;48.160;14.036;2023-02-26T10:21:15;7.40;99.90
57552;DHT22;43379;48.160;14.036;2023-02-26T10:23:45;7.50;99.90
57552;DHT22;43379;48.160;14.036;2023-02-26T10:26:23;7.50;99.90
57552;DHT22;43379;48.160;14.036;2023-02-26T10:32:57;7.40;99.90
57552;DHT22;43379;48.160;14.036;2023-02-26T10:35:03;7.20;99.90
57552;DHT22;43379;48.160;14.036;2023-02-26T10:51:21;7.50;99.90
57552;DHT22;43379;48.160;14.036;2023-02-26T10:53:59;7.50;99.90
57552;DHT22;43379;48.160;14.036;2023-02-26T10:56:32;7.50;99.90
57552;DHT22;43379;48.160;14.036;2023-02-26T10:58:58;7.30;99.90
57552;DHT22;43379;48.160;14.036;2023-02-26T11:01:26;7.30;99.90
57552;DHT22;43379;48.160;14.036;2023-02-26T11:06:38;7.20;99.90
57552;DHT22;43379;48.160;14.036;2023-02-26T11:09:55;7.30;99.90
57552;DHT22;43379;48.160;14.036;2023-02-26T11:12:12;7.20;99.90
57552;DHT22;43379;48.160;14.036;2023-02-26T11:14:39;7.30;99.90
57552;DHT22;43379;48.160;14.036;2023-02-26T11:17:27;7.30;99.90
57552;DHT22;43379;48.160;14.036;2023-02-26T11:20:00;7.30;99.50
57552;DHT22;43379;48.160;14.036;2023-02-26T11:22:32;7.40;99.90
57552;DHT22;43379;48.160;14.036;2023-02-26T11:24:58;7.70;99.90
57552;DHT22;43379;48.160;14.036;2023-02-26T11:27:30;8.10;99.90
57552;DHT22;43379;48.160;14.036;2023-02-26T11:29:58;8.20;99.90
57552;DHT22;43379;48.160;14.036;2023-02-26T11:32:31;8.40;98.90
57552;DHT22;43379;48.160;14.036;2023-02-26T11:34:57;8.50;99.40
57552;DHT22;43379;48.160;14.036;2023-02-26T11:37:30;8.40;98.60
57552;DHT22;43379;48.160;14.036;2023-02-26T11:40:06;8.40;98.20
57552;DHT22;43379;48.160;14.036;2023-02-26T11:42:47;8.20;98.10
57552;DHT22;43379;48.160;14.036;2023-02-26T11:45:16;8.10;98.30
57552;DHT22;43379;48.160;14.036;2023-02-26T11:47:43;7.90;98.50
57552;DHT22;43379;48.160;14.036;2023-02-26T11:50:15;8.00;98.10
57552;DHT22;43379;48.160;14.036;2023-02-26T11:52:45;8.00;98.60
57552;DHT22;43379;48.160;14.036;2023-02-26T11:55:31;8.00;98.50
57552;DHT22;43379;48.160;14.036;2023-02-26T11:57:57;7.90;97.70
57552;DHT22;43379;48.160;14.036;2023-02-26T12:00:29;7.70;97.90
57552;DHT22;43379;48.160;14.036;2023-02-26T12:03:03;7.70;98.10
57552;DHT22;43379;48.160;14.036;2023-02-26T12:05:30;7.70;98.60
57552;DHT22;43379;48.160;14.036;2023-02-26T12:07:56;7.70;98.20
57552;DHT22;43379;48.160;14.036;2023-02-26T12:10:37;7.70;97.90
57552;DHT22;43379;48.160;14.036;2023-02-26T12:13:13;8.00;98.90
57552;DHT22;43379;48.160;14.036;2023-02-26T12:19:04;8.30;94.60
57552;DHT22;43379;48.160;14.036;2023-02-26T12:29:47;8.20;94.30
57552;DHT22;43379;48.160;14.036;2023-02-26T12:35:36;7.90;92.30
57552;DHT22;43379;48.160;14.036;2023-02-26T12:43:54;7.20;93.00
57552;DHT22;43379;48.160;14.036;2023-02-26T12:52:23;6.60;92.00
57552;DHT22;43379;48.160;14.036;2023-02-26T12:57:45;6.60;93.00
57552;DHT22;43379;48.160;14.036;2023-02-26T13:09:06;6.40;92.80
57552;DHT22;43379;48.160;14.036;2023-02-26T13:16:56;6.00;91.40
57552;DHT22;43379;48.160;14.036;2023-02-26T13:19:48;6.00;92.30
57552;DHT22;43379;48.160;14.036;2023-02-26T13:27:32;6.10;92.90
57552;DHT22;43379;48.160;14.036;2023-02-26T13:32:43;6.00;90.80
57552;DHT22;43379;48.160;14.036;2023-02-26T13:35:17;6.10;91.90
57552;DHT22;43379;48.160;14.036;2023-02-26T13:37:53;6.10;91.60
57552;DHT22;43379;48.160;14.036;2023-02-26T13:43:23;6.10;92.40
57552;DHT22;43379;48.160;14.036;2023-02-26T13:46:11;6.20;92.30
57552;DHT22;43379;48.160;14.036;2023-02-26T13:48:44;6.10;91.60
57552;DHT22;43379;48.160;14.036;2023-02-26T13:51:36;6.10;92.10
57552;DHT22;43379;48.160;14.036;2023-02-26T13:54:28;6.10;91.30
57552;DHT22;43379;48.160;14.036;2023-02-26T14:00:32;6.40;91.50
57552;DHT22;43379;48.160;14.036;2023-02-26T14:13:36;6.70;90.50
57552;DHT22;43379;48.160;14.036;2023-02-26T14:16:23;6.80;90.60
57552;DHT22;43379;48.160;14.036;2023-02-26T14:18:52;6.70;90.80
57552;DHT22;43379;48.160;14.036;2023-02-26T14:24:22;6.50;90.40
57552;DHT22;43379;48.160;14.036;2023-02-26T14:27:02;6.40;90.50
57552;DHT22;43379;48.160;14.036;2023-02-26T14:35:27;6.10;90.70
57552;DHT22;43379;48.160;14.036;2023-02-26T14:37:59;6.00;90.60
57552;DHT22;43379;48.160;14.036;2023-02-26T14:40:29;5.90;90.30
57552;DHT22;43379;48.160;14.036;2023-02-26T14:42:59;5.60;90.10
57552;DHT22;43379;48.160;14.036;2023-02-26T14:45:37;5.60;90.50
57552;DHT22;43379;48.160;14.036;2023-02-26T14:48:06;5.60;91.50
57552;DHT22;43379;48.160;14.036;2023-02-26T15:07:02;5.20;91.50
57552;DHT22;43379;48.160;14.036;2023-02-26T15:09:43;5.20;91.60
57552;DHT22;43379;48.160;14.036;2023-02-26T15:12:30;5.20;91.90
57552;DHT22;43379;48.160;14.036;2023-02-26T15:15:19;5.20;91.80
57552;DHT22;43379;48.160;14.036;2023-02-26T15:17:55;5.20;91.30
57552;DHT22;43379;48.160;14.036;2023-02-26T15:23:21;5.20;92.20
57552;DHT22;43379;48.160;14.036;2023-02-26T15:25:50;5.20;92.00
57552;DHT22;43379;48.160;14.036;2023-02-26T15:28:37;5.20;91.90
57552;DHT22;43379;48.160;14.036;2023-02-26T15:31:06;5.20;92.20
57552;DHT22;43379;48.160;14.036;2023-02-26T15:33:32;5.20;92.10
57552;DHT22;43379;48.160;14.036;2023-02-26T15:35:59;5.20;92.00
57552;DHT22;43379;48.160;14.036;2023-02-26T15:38:26;5.20;91.90
57552;DHT22;43379;48.160;14.036;2023-02-26T15:40:53;5.30;92.00
57552;DHT22;43379;48.160;14.036;2023-02-26T15:43:24;5.20;91.70
57552;DHT22;43379;48.160;14.036;2023-02-26T15:45:53;5.20;91.70
57552;DHT22;43379;48.160;14.036;2023-02-26T15:48:31;5.20;91.50
57552;DHT22;43379;48.160;14.036;2023-02-26T15:51:03;5.20;90.90
57552;DHT22;43379;48.160;14.036;2023-02-26T15:56:04;5.20;90.50
57552;DHT22;43379;48.160;14.036;2023-02-26T15:58:58;5.20;90.00
57552;DHT22;43379;48.160;14.036;2023-02-26T16:01:24;5.20;90.20
57552;DHT22;43379;48.160;14.036;2023-02-26T16:03:53;5.20;90.60
57552;DHT22;43379;48.160;14.036;2023-02-26T16:06:36;5.30;90.20
57552;DHT22;43379;48.160;14.036;2023-02-26T16:09:04;5.10;90.30
57552;DHT22;43379;48.160;14.036;2023-02-26T16:11:37;5.20;90.40
57552;DHT22;43379;48.160;14.036;2023-02-26T16:14:05;5.10;90.70
57552;DHT22;43379;48.160;14.036;2023-02-26T16:16:44;5.10;90.70
57552;DHT22;43379;48.160;14.036;2023-02-26T16:19:36;5.10;90.70
57552;DHT22;43379;48.160;14.036;2023-02-26T16:24:58;5.10;90.30
57552;DHT22;43379;48.160;14.036;2023-02-26T16:27:27;5.10;90.50
57552;DHT22;43379;48.160;14.036;2023-02-26T16:29:56;5.00;90.70
57552;DHT22;43379;48.160;14.036;2023-02-26T16:32:24;4.90;90.90
57552;DHT22;43379;48.160;14.036;2023-02-26T16:34:53;4.80;90.50
57552;DHT22;43379;48.160;14.036;2023-02-26T16:37:26;4.80;90.70
57552;DHT22;43379;48.160;14.036;2023-02-26T16:42:58;4.70;90.70
57552;DHT22;43379;48.160;14.036;2023-02-26T16:48:21;4.60;90.80
57552;DHT22;43379;48.160;14.036;2023-02-26T16:51:04;4.50;91.00
57552;DHT22;43379;48.160;14.036;2023-02-26T16:53:36;4.50;91.30
57552;DHT22;43379;48.160;14.036;2023-02-26T16:56:14;4.50;91.40
57552;DHT22;43379;48.160;14.036;2023-02-26T16:58:50;4.50;91.30
57552;DHT22;43379;48.160;14.036;2023-02-26T17:01:20;4.50;91.60
57552;DHT22;43379;48.160;14.036;2023-02-26T17:03:58;4.40;91.60
57552;DHT22;43379;48.160;14.036;2023-02-26T17:06:26;4.40;91.60
57552;DHT22;43379;48.160;14.036;2023-02-26T17:09:00;4.30;91.70
57552;DHT22;43379;48.160;14.036;2023-02-26T17:11:29;4.30;91.70
57552;DHT22;43379;48.160;14.036;2023-02-26T17:16:28;4.30;91.80
57552;DHT22;43379;48.160;14.036;2023-02-26T17:18:54;4.20;91.70
57552;DHT22;43379;48.160;14.036;2023-02-26T17:21:20;4.20;92.40
57552;DHT22;43379;48.160;14.036;2023-02-26T17:23:46;4.20;92.30
57552;DHT22;43379;48.160;14.036;2023-02-26T17:26:11;4.10;92.30
57552;DHT22;43379;48.160;14.036;2023-02-26T17:28:41;4.20;92.50
57552;DHT22;43379;48.160;14.036;2023-02-26T17:31:07;4.20;92.40
57552;DHT22;43379;48.160;14.036;2023-02-26T17:33:33;4.20;92.50
57552;DHT22;43379;48.160;14.036;2023-02-26T17:36:02;4.20;92.40
57552;DHT22;43379;48.160;14.036;2023-02-26T17:38:27;4.10;92.40
57552;DHT22;43379;48.160;14.036;2023-02-26T17:40:54;4.10;92.70
57552;DHT22;43379;48.160;14.036;2023-02-26T17:43:23;4.10;93.00
57552;DHT22;43379;48.160;14.036;2023-02-26T17:45:49;4.00;93.30
57552;DHT22;43379;48.160;14.036;2023-02-26T17:48:16;4.00;93.50
57552;DHT22;43379;48.160;14.036;2023-02-26T17:50:56;3.90;93.70
57552;DHT22;43379;48.160;14.036;2023-02-26T17:53:23;3.90;93.80
57552;DHT22;43379;48.160;14.036;2023-02-26T17:55:52;3.90;94.00
57552;DHT22;43379;48.160;14.036;2023-02-26T17:58:26;3.80;94.40
57552;DHT22;43379;48.160;14.036;2023-02-26T18:00:53;3.80;94.40
57552;DHT22;43379;48.160;14.036;2023-02-26T18:03:20;3.70;94.80
57552;DHT22;43379;48.160;14.036;2023-02-26T18:05:47;3.70;94.90
57552;DHT22;43379;48.160;14.036;2023-02-26T18:08:24;3.70;95.10
57552;DHT22;43379;48.160;14.036;2023-02-26T18:10:51;3.70;95.20
57552;DHT22;43379;48.160;14.036;2023-02-26T18:13:17;3.70;95.10
57552;DHT22;43379;48.160;14.036;2023-02-26T18:15:43;3.70;95.00
57552;DHT22;43379;48.160;14.036;2023-02-26T18:18:11;3.70;95.20
57552;DHT22;43379;48.160;14.036;2023-02-26T18:20:38;3.70;95.20
57552;DHT22;43379;48.160;14.036;2023-02-26T18:23:04;3.70;95.30
57552;DHT22;43379;48.160;14.036;2023-02-26T18:25:32;3.70;95.40
57552;DHT22;43379;48.160;14.036;2023-02-26T18:28:00;3.60;95.60
57552;DHT22;43379;48.160;14.036;2023-02-26T18:30:31;3.60;95.60
57552;DHT22;43379;48.160;14.036;2023-02-26T18:32:57;3.60;95.90
57552;DHT22;43379;48.160;14.036;2023-02-26T18:35:27;3.60;95.90
57552;DHT22;43379;48.160;14.036;2023-02-26T18:37:54;3.60;96.00
57552;DHT22;43379;48.160;14.036;2023-02-26T18:40:23;3.50;96.10
57552;DHT22;43379;48.160;14.036;2023-02-26T18:42:50;3.50;96.00
57552;DHT22;43379;48.160;14.036;2023-02-26T18:45:17;3.50;96.20
57552;DHT22;43379;48.160;14.036;2023-02-26T18:47:43;3.50;96.10
57552;DHT22;43379;48.160;14.036;2023-02-26T18:50:15;3.50;96.10
57552;DHT22;43379;48.160;14.036;2023-02-26T18:52:41;3.40;96.30